Terminal Aerodrome Forecast
Issued by NWS

Current Version | Previous Version | Text Only | Print | Product List | Glossary On
Versions: 1 2 3 4 5 6 7 8 9 10 11 12
822
FTUS42 KMLB 142320
TAFSUA
TAF
KSUA 142320Z 1500/1524 23003KT P6SM FEW050
     FM151500 24007KT P6SM FEW040 SCT250
     FM151800 14008KT P6SM SCT040 BKN250=

USA.gov is the U.S. government's official web portal to all federal, state and local government web resources and services.